createdAt,value
2022-08-11T00:02:15.109Z,100903.69
2022-08-11T00:07:21.592Z,100907.75
2022-08-11T00:12:27.439Z,100908.23
2022-08-11T00:17:34.989Z,100902.55
2022-08-11T00:22:41.805Z,100902.88
2022-08-11T00:27:49.112Z,100904.27
2022-08-11T00:32:59.310Z,100899.00
2022-08-11T00:38:05.882Z,100904.23
2022-08-11T00:43:20.701Z,100900.29
2022-08-11T00:48:30.297Z,100895.48
2022-08-11T00:53:50.931Z,100894.54
2022-08-11T00:59:34.836Z,100895.88
2022-08-11T01:05:04.101Z,100897.23
2022-08-11T01:10:26.349Z,100894.38
2022-08-11T01:15:57.395Z,100894.66
2022-08-11T01:21:19.890Z,100890.73
2022-08-11T01:26:45.083Z,100883.41
2022-08-11T01:32:13.895Z,100884.34
2022-08-11T01:37:33.293Z,100871.84
2022-08-11T01:43:16.217Z,100877.14
2022-08-11T01:48:27.142Z,100890.41
2022-08-11T01:53:36.089Z,100893.14
2022-08-11T01:58:46.895Z,100891.08
2022-08-11T02:03:57.288Z,100891.29
2022-08-11T02:09:07.234Z,100898.05
2022-08-11T02:14:23.165Z,100897.56
2022-08-11T02:19:53.452Z,100899.70
2022-08-11T02:25:02.841Z,100898.69
2022-08-11T02:30:10.458Z,100896.64
2022-08-11T02:35:19.531Z,100899.99
2022-08-11T02:40:32.124Z,100900.55
2022-08-11T02:45:50.783Z,100902.35
2022-08-11T02:51:05.887Z,100910.48
2022-08-11T02:56:16.741Z,100910.81
2022-08-11T03:01:29.114Z,100913.48
2022-08-11T03:06:38.078Z,100911.85
2022-08-11T03:12:09.786Z,100914.48
2022-08-11T03:17:26.928Z,100918.16
2022-08-11T03:22:38.512Z,100916.20
2022-08-11T03:27:51.434Z,100917.55
2022-08-11T03:33:25.394Z,100916.27
2022-08-11T03:38:40.499Z,100923.67
2022-08-11T03:43:58.311Z,100928.08
2022-08-11T03:49:09.862Z,100923.20
2022-08-11T03:54:21.182Z,100924.95
2022-08-11T03:59:35.525Z,100930.88
2022-08-11T04:05:00.428Z,100936.94
2022-08-11T04:10:21.669Z,100938.64
2022-08-11T04:16:12.036Z,100939.48
2022-08-11T04:21:50.864Z,100941.39
2022-08-11T04:27:20.126Z,100935.98
2022-08-11T04:32:44.129Z,100935.35
2022-08-11T04:38:10.062Z,100941.19
2022-08-11T04:44:02.334Z,100935.96
2022-08-11T04:49:43.545Z,100933.08
2022-08-11T04:55:12.745Z,100927.47
2022-08-11T05:00:37.668Z,100923.89
2022-08-11T05:06:02.693Z,100924.61
2022-08-11T05:11:20.785Z,100923.20
2022-08-11T05:16:47.190Z,100926.83
2022-08-11T05:22:14.886Z,100925.05
2022-08-11T05:27:38.877Z,100918.21
2022-08-11T05:33:04.452Z,100917.19
2022-08-11T05:38:32.619Z,100917.73
2022-08-11T05:44:19.696Z,100918.29
2022-08-11T05:49:44.379Z,100919.60
2022-08-11T05:55:08.066Z,100918.81
2022-08-11T06:00:16.401Z,100919.41
2022-08-11T06:05:22.499Z,100922.64
2022-08-11T06:10:33.719Z,100918.59
2022-08-11T06:15:47.736Z,100924.02
2022-08-11T06:20:55.020Z,100924.27
2022-08-11T06:26:01.050Z,100920.19
2022-08-11T06:31:13.690Z,100918.65
2022-08-11T06:36:26.309Z,100921.90
2022-08-11T06:41:36.569Z,100920.23
2022-08-11T06:46:44.023Z,100916.80
2022-08-11T06:51:51.759Z,100913.05
2022-08-11T06:57:31.258Z,100913.60
2022-08-11T07:02:39.818Z,100910.65
2022-08-11T07:08:34.386Z,100906.92
2022-08-11T07:13:59.444Z,100906.73
2022-08-11T07:19:23.992Z,100904.59
2022-08-11T07:25:01.482Z,100904.29
2022-08-11T07:30:10.944Z,100908.11
2022-08-11T07:35:19.611Z,100910.39
2022-08-11T07:40:26.150Z,100909.60
2022-08-11T07:45:49.981Z,100908.23
2022-08-11T07:51:13.268Z,100902.31
2022-08-11T07:56:20.990Z,100903.54
2022-08-11T08:01:54.274Z,100905.11
2022-08-11T08:07:18.325Z,100904.79
2022-08-11T08:12:42.951Z,100898.98
2022-08-11T08:18:09.886Z,100898.39
2022-08-11T08:23:34.001Z,100900.13
2022-08-11T08:28:39.890Z,100897.77
2022-08-11T08:33:45.669Z,100898.66
2022-08-11T08:38:51.762Z,100896.50
2022-08-11T08:44:15.164Z,100898.23
2022-08-11T08:49:29.023Z,100892.38
2022-08-11T08:54:37.749Z,100886.20
2022-08-11T08:59:49.016Z,100890.71
2022-08-11T09:04:55.779Z,100887.52
2022-08-11T09:10:01.870Z,100887.42
2022-08-11T09:15:10.683Z,100885.17
2022-08-11T09:20:19.551Z,100883.45
2022-08-11T09:25:45.060Z,100877.33
2022-08-11T09:30:55.547Z,100879.75
2022-08-11T09:36:23.749Z,100879.45
2022-08-11T09:42:01.068Z,100878.17
2022-08-11T09:46:58.272Z,100877.45
2022-08-11T09:52:10.243Z,100870.56
2022-08-11T09:57:33.352Z,100869.44
2022-08-11T10:02:42.611Z,100860.46
2022-08-11T10:07:52.957Z,100854.53
2022-08-11T10:13:02.349Z,100852.34
2022-08-11T10:18:27.218Z,100840.44
2022-08-11T10:24:00.527Z,100836.31
2022-08-11T10:29:26.365Z,100836.19
2022-08-11T10:34:41.379Z,100833.56
2022-08-11T10:39:58.488Z,100835.95
2022-08-11T10:45:27.084Z,100829.75
2022-08-11T10:50:50.789Z,100828.29
2022-08-11T10:56:14.589Z,100825.95
2022-08-11T11:01:24.457Z,100834.41
2022-08-11T11:06:34.110Z,100831.54
2022-08-11T11:11:59.237Z,100818.69
2022-08-11T11:17:24.654Z,100817.00
2022-08-11T11:22:40.549Z,100800.79
2022-08-11T11:27:54.529Z,100789.65
2022-08-11T11:33:04.668Z,100787.70
2022-08-11T11:38:13.984Z,100784.48
2022-08-11T11:43:19.857Z,100781.90
2022-08-11T11:48:29.472Z,100775.26
2022-08-11T11:53:35.307Z,100768.98
2022-08-11T11:58:59.508Z,100761.06
2022-08-11T12:04:06.051Z,100759.14
2022-08-11T12:09:15.236Z,100751.96
2022-08-11T12:14:22.310Z,100745.85
2022-08-11T12:19:35.836Z,100743.36
2022-08-11T12:24:59.237Z,100730.73
2022-08-11T12:30:08.976Z,100731.64
2022-08-11T12:35:16.373Z,100732.40
2022-08-11T12:41:11.921Z,100735.09
2022-08-11T12:46:06.017Z,100730.73
2022-08-11T12:51:30.347Z,100728.38
2022-08-11T12:57:24.023Z,100725.31
2022-08-11T13:03:00.437Z,100723.45
2022-08-11T13:08:06.999Z,100722.35
2022-08-11T13:13:52.906Z,100721.46
2022-08-11T13:18:39.773Z,100719.45
2022-08-11T13:23:59.933Z,100708.17
2022-08-11T13:29:07.683Z,100702.74
2022-08-11T13:34:13.688Z,100695.22
2022-08-11T13:39:20.660Z,100688.89
2022-08-11T13:44:28.217Z,100689.62
2022-08-11T13:49:34.677Z,100689.02
2022-08-11T13:54:41.760Z,100687.64
2022-08-11T13:59:52.328Z,100693.21
2022-08-11T14:05:00.673Z,100688.10
2022-08-11T14:10:07.644Z,100678.75
2022-08-11T14:15:20.602Z,100675.48
2022-08-11T14:20:46.624Z,100666.76
2022-08-11T14:26:06.425Z,100665.92
2022-08-11T14:31:12.465Z,100669.94
2022-08-11T14:36:19.515Z,100677.63
2022-08-11T14:42:10.634Z,100685.29
2022-08-11T14:47:23.004Z,100683.15
2022-08-11T14:52:33.883Z,100678.64
2022-08-11T14:58:04.546Z,100681.56
2022-08-11T15:03:14.091Z,100676.02
2022-08-11T15:08:20.451Z,100675.16
2022-08-11T15:13:26.057Z,100669.38
2022-08-11T15:18:32.071Z,100668.73
2022-08-11T15:23:55.069Z,100665.31
2022-08-11T15:29:23.019Z,100659.58
2022-08-11T15:34:48.481Z,100660.45
2022-08-11T15:40:31.360Z,100665.11
2022-08-11T15:45:52.433Z,100662.38
2022-08-11T15:50:59.184Z,100657.07
2022-08-11T15:56:05.461Z,100654.50
2022-08-11T16:01:29.481Z,100655.02
2022-08-11T16:06:36.145Z,100650.97
2022-08-11T16:11:42.737Z,100643.98
2022-08-11T16:16:49.574Z,100643.21
2022-08-11T16:21:55.548Z,100647.30
2022-08-11T16:27:11.734Z,100644.41
2022-08-11T16:32:22.266Z,100648.77
2022-08-11T16:37:46.045Z,100647.11
2022-08-11T16:43:10.773Z,100645.96
2022-08-11T16:48:36.000Z,100646.99
2022-08-11T16:53:59.821Z,100648.30
2022-08-11T16:59:18.811Z,100645.30
2022-08-11T17:04:47.997Z,100647.00
2022-08-11T17:10:38.221Z,100643.55
2022-08-11T17:15:56.987Z,100641.11
2022-08-11T17:21:04.284Z,100643.17
2022-08-11T17:26:09.952Z,100648.47
2022-08-11T17:31:34.160Z,100649.60
2022-08-11T17:36:45.298Z,100650.45
2022-08-11T17:42:10.176Z,100652.75
2022-08-11T17:47:33.960Z,100658.24
2022-08-11T17:52:57.362Z,100664.39
2022-08-11T17:58:20.616Z,100665.79
2022-08-11T18:03:33.394Z,100671.11
2022-08-11T18:08:58.699Z,100678.20
2022-08-11T18:14:23.602Z,100676.77
2022-08-11T18:19:46.781Z,100675.03
2022-08-11T18:25:10.975Z,100677.79
2022-08-11T18:30:33.852Z,100681.69
2022-08-11T18:35:58.153Z,100682.90
2022-08-11T18:41:22.774Z,100687.23
2022-08-11T18:46:49.423Z,100688.56
2022-08-11T18:52:15.055Z,100694.33
2022-08-11T18:57:49.666Z,100697.52
2022-08-11T19:03:18.224Z,100700.19
2022-08-11T19:08:42.208Z,100702.14
2022-08-11T19:14:06.313Z,100702.19
2022-08-11T19:19:30.213Z,100706.27
2022-08-11T19:24:55.020Z,100710.27
2022-08-11T19:30:18.709Z,100710.30
2022-08-11T19:35:41.790Z,100717.28
2022-08-11T19:41:05.775Z,100719.61
2022-08-11T19:46:29.985Z,100722.17
2022-08-11T19:51:54.351Z,100727.73
2022-08-11T19:57:18.801Z,100728.54
2022-08-11T20:02:41.978Z,100725.73
2022-08-11T20:08:05.365Z,100732.91
2022-08-11T20:13:29.055Z,100737.27
2022-08-11T20:18:54.393Z,100734.52
2022-08-11T20:24:19.604Z,100732.33
2022-08-11T20:29:45.144Z,100732.80
2022-08-11T20:35:13.218Z,100739.85
2022-08-11T20:40:37.233Z,100737.23
2022-08-11T20:46:01.737Z,100739.52
2022-08-11T20:51:25.427Z,100745.54
2022-08-11T20:56:50.235Z,100744.20
2022-08-11T21:02:14.006Z,100742.10
2022-08-11T21:07:39.427Z,100746.88
2022-08-11T21:13:25.261Z,100755.73
2022-08-11T21:18:50.007Z,100759.27
2022-08-11T21:24:17.059Z,100757.56
2022-08-11T21:29:40.729Z,100757.94
2022-08-11T21:35:04.944Z,100755.80
2022-08-11T21:40:29.661Z,100750.05
2022-08-11T21:45:53.262Z,100756.43
2022-08-11T21:51:16.419Z,100758.50
2022-08-11T21:56:40.723Z,100757.23
2022-08-11T22:02:05.304Z,100759.34
2022-08-11T22:07:30.452Z,100755.92
2022-08-11T22:12:56.296Z,100756.71
2022-08-11T22:18:20.195Z,100756.77
2022-08-11T22:23:43.577Z,100752.75
2022-08-11T22:29:08.809Z,100746.80
2022-08-11T22:34:32.173Z,100747.94
2022-08-11T22:40:03.391Z,100744.09
2022-08-11T22:45:27.550Z,100744.47
2022-08-11T22:50:51.034Z,100745.72
2022-08-11T22:56:14.325Z,100749.63
2022-08-11T23:01:38.463Z,100741.81
2022-08-11T23:07:49.598Z,100741.95
2022-08-11T23:13:02.552Z,100744.38
2022-08-11T23:18:26.239Z,100745.59
2022-08-11T23:23:49.829Z,100744.36
2022-08-11T23:29:13.314Z,100745.16
2022-08-11T23:35:02.780Z,100743.11
2022-08-11T23:40:21.078Z,100743.09
2022-08-11T23:45:46.404Z,100744.72
2022-08-11T23:51:09.159Z,100741.42
2022-08-11T23:56:32.545Z,100742.08
